createdAt,value
2022-09-01T00:00:50.078Z,70
2022-09-01T00:02:50.673Z,70
2022-09-01T00:04:50.417Z,71
2022-09-01T00:06:50.356Z,70
2022-09-01T00:08:50.481Z,70
2022-09-01T00:10:50.550Z,70
2022-09-01T00:12:50.617Z,70
2022-09-01T00:14:50.426Z,70
2022-09-01T00:16:52.350Z,70
2022-09-01T00:18:50.159Z,70
2022-09-01T00:20:51.009Z,70
2022-09-01T00:22:50.912Z,70
2022-09-01T00:24:50.438Z,70
2022-09-01T00:26:50.808Z,70
2022-09-01T00:28:50.063Z,70
2022-09-01T00:30:50.528Z,70
2022-09-01T00:32:51.004Z,70
2022-09-01T00:34:50.635Z,70
2022-09-01T00:36:50.967Z,70
2022-09-01T00:38:50.208Z,70
2022-09-01T00:40:50.754Z,70
2022-09-01T00:42:50.502Z,70
2022-09-01T00:44:50.567Z,70
2022-09-01T00:46:56.812Z,70
2022-09-01T00:48:50.734Z,70
2022-09-01T00:50:55.161Z,70
2022-09-01T00:52:50.083Z,70
2022-09-01T00:54:50.201Z,70
2022-09-01T00:56:58.538Z,70
2022-09-01T00:58:50.421Z,70
2022-09-01T01:00:50.441Z,70
2022-09-01T01:02:51.099Z,70
2022-09-01T01:04:50.078Z,70
2022-09-01T01:06:50.356Z,70
2022-09-01T01:08:50.209Z,70
2022-09-01T01:10:50.752Z,70
2022-09-01T01:12:50.784Z,70
2022-09-01T01:14:51.502Z,70
2022-09-01T01:16:50.984Z,70
2022-09-01T01:18:50.900Z,70
2022-09-01T01:20:50.774Z,70
2022-09-01T01:22:50.085Z,70
2022-09-01T01:24:50.851Z,70
2022-09-01T01:26:50.063Z,70
2022-09-01T01:28:56.178Z,70
2022-09-01T01:30:50.923Z,70
2022-09-01T01:32:50.837Z,70
2022-09-01T01:34:50.201Z,70
2022-09-01T01:36:50.231Z,70
2022-09-01T01:38:50.286Z,70
2022-09-01T01:40:50.514Z,70
2022-09-01T01:42:50.470Z,70
2022-09-01T01:44:50.312Z,70
2022-09-01T01:46:50.722Z,70
2022-09-01T01:48:50.664Z,71
2022-09-01T01:50:50.748Z,71
2022-09-01T01:53:00.233Z,71
2022-09-01T01:54:50.117Z,71
2022-09-01T01:56:50.563Z,71
2022-09-01T01:58:50.665Z,71
2022-09-01T02:00:50.384Z,71
2022-09-01T02:02:50.732Z,71
2022-09-01T02:04:50.125Z,71
2022-09-01T02:06:50.126Z,71
2022-09-01T02:08:50.521Z,71
2022-09-01T02:10:50.428Z,72
2022-09-01T02:12:50.289Z,72
2022-09-01T02:14:50.611Z,72
2022-09-01T02:16:51.011Z,72
2022-09-01T02:18:50.201Z,72
2022-09-01T02:20:51.011Z,72
2022-09-01T02:22:50.296Z,72
2022-09-01T02:24:50.224Z,72
2022-09-01T02:26:50.488Z,72
2022-09-01T02:28:56.577Z,71
2022-09-01T02:30:50.957Z,71
2022-09-01T02:32:50.799Z,71
2022-09-01T02:34:50.357Z,71
2022-09-01T02:36:50.394Z,71
2022-09-01T02:38:58.905Z,71
2022-09-01T02:40:50.910Z,71
2022-09-01T02:42:50.914Z,71
2022-09-01T02:44:50.804Z,72
2022-09-01T02:46:50.534Z,72
2022-09-01T02:48:50.321Z,72
2022-09-01T02:50:50.374Z,72
2022-09-01T02:52:50.205Z,72
2022-09-01T02:54:50.361Z,72
2022-09-01T02:56:50.687Z,72
2022-09-01T02:58:50.991Z,72
2022-09-01T03:00:51.285Z,72
2022-09-01T03:02:50.261Z,72
2022-09-01T03:04:51.092Z,72
2022-09-01T03:06:50.054Z,72
2022-09-01T03:08:50.777Z,72
2022-09-01T03:10:50.798Z,72
2022-09-01T03:12:50.614Z,73
2022-09-01T03:14:50.634Z,73
2022-09-01T03:16:51.082Z,73
2022-09-01T03:18:50.199Z,73
2022-09-01T03:20:50.939Z,73
2022-09-01T03:22:50.940Z,73
2022-09-01T03:24:50.011Z,73
2022-09-01T03:26:50.892Z,73
2022-09-01T03:28:50.728Z,73
2022-09-01T03:30:50.740Z,73
2022-09-01T03:32:50.895Z,73
2022-09-01T03:34:50.165Z,73
2022-09-01T03:36:50.744Z,74
2022-09-01T03:38:50.789Z,74
2022-09-01T03:40:50.439Z,74
2022-09-01T03:42:50.685Z,74
2022-09-01T03:44:50.358Z,74
2022-09-01T03:46:50.642Z,74
2022-09-01T03:48:50.432Z,74
2022-09-01T03:50:50.518Z,74
2022-09-01T03:52:50.416Z,74
2022-09-01T03:54:50.329Z,74
2022-09-01T03:56:50.674Z,74
2022-09-01T03:58:50.453Z,74
2022-09-01T04:00:50.746Z,74
2022-09-01T04:02:56.751Z,74
2022-09-01T04:04:53.011Z,74
2022-09-01T04:06:50.163Z,75
2022-09-01T04:08:50.182Z,75
2022-09-01T04:10:55.106Z,75
2022-09-01T04:12:50.005Z,75
2022-09-01T04:14:50.809Z,75
2022-09-01T04:16:51.168Z,75
2022-09-01T04:18:50.159Z,75
2022-09-01T04:20:50.198Z,74
2022-09-01T04:22:50.904Z,75
2022-09-01T04:24:50.741Z,75
2022-09-01T04:26:50.812Z,75
2022-09-01T04:28:50.751Z,75
2022-09-01T04:30:54.414Z,75
2022-09-01T04:32:50.236Z,75
2022-09-01T04:34:50.711Z,75
2022-09-01T04:36:55.017Z,75
2022-09-01T04:38:50.896Z,76
2022-09-01T04:40:51.278Z,76
2022-09-01T04:42:50.296Z,76
2022-09-01T04:44:50.107Z,76
2022-09-01T04:46:50.250Z,76
2022-09-01T04:48:51.265Z,76
2022-09-01T04:50:50.303Z,76
2022-09-01T04:52:50.082Z,77
2022-09-01T04:54:50.101Z,77
2022-09-01T04:56:50.279Z,77
2022-09-01T04:58:50.298Z,77
2022-09-01T05:00:50.520Z,76
2022-09-01T05:02:53.779Z,76
2022-09-01T05:04:51.018Z,77
2022-09-01T05:06:50.179Z,77
2022-09-01T05:08:50.945Z,77
2022-09-01T05:10:50.839Z,77
2022-09-01T05:12:50.102Z,77
2022-09-01T05:14:50.977Z,77
2022-09-01T05:16:50.647Z,77
2022-09-01T05:18:50.540Z,77
2022-09-01T05:20:50.287Z,77
2022-09-01T05:22:50.252Z,77
2022-09-01T05:24:50.232Z,77
2022-09-01T05:26:50.487Z,77
2022-09-01T05:28:50.482Z,78
2022-09-01T05:30:50.285Z,79
2022-09-01T05:32:50.299Z,79
2022-09-01T05:34:50.831Z,79
2022-09-01T05:36:50.970Z,78
2022-09-01T05:38:51.001Z,78
2022-09-01T05:40:51.175Z,78
2022-09-01T05:42:50.551Z,78
2022-09-01T05:44:53.273Z,78
2022-09-01T05:46:50.845Z,77
2022-09-01T05:48:50.927Z,77
2022-09-01T05:50:50.993Z,77
2022-09-01T05:52:51.115Z,76
2022-09-01T05:54:50.756Z,76
2022-09-01T05:56:51.002Z,76
2022-09-01T05:59:26.143Z,76
2022-09-01T06:00:50.442Z,76
2022-09-01T06:02:50.953Z,75
2022-09-01T06:04:50.254Z,75
2022-09-01T06:07:16.260Z,75
2022-09-01T06:08:50.545Z,75
2022-09-01T06:10:50.516Z,74
2022-09-01T06:12:55.501Z,74
2022-09-01T06:14:50.616Z,74
2022-09-01T06:16:50.738Z,74
2022-09-01T06:18:56.064Z,74
2022-09-01T06:20:51.029Z,74
2022-09-01T06:22:50.826Z,73
2022-09-01T06:25:03.552Z,73
2022-09-01T06:26:50.986Z,73
2022-09-01T06:28:50.832Z,73
2022-09-01T06:30:50.847Z,73
2022-09-01T06:32:50.919Z,73
2022-09-01T06:34:50.345Z,72
2022-09-01T06:36:50.732Z,72
2022-09-01T06:38:50.603Z,72
2022-09-01T06:40:55.693Z,72
2022-09-01T06:42:50.708Z,71
2022-09-01T06:44:50.542Z,71
2022-09-01T06:46:51.138Z,71
2022-09-01T06:48:50.122Z,70
2022-09-01T06:51:21.920Z,70
2022-09-01T06:53:34.256Z,70
2022-09-01T06:54:50.089Z,70
2022-09-01T06:56:54.599Z,70
2022-09-01T06:58:51.049Z,70
2022-09-01T07:00:53.266Z,69
2022-09-01T07:02:50.400Z,70
2022-09-01T07:04:50.879Z,70
2022-09-01T07:08:04.797Z,70
2022-09-01T07:09:38.722Z,69
2022-09-01T07:13:07.247Z,69
2022-09-01T07:17:24.130Z,69
2022-09-01T07:18:59.426Z,69
2022-09-01T07:21:40.717Z,69
2022-09-01T07:23:14.531Z,69
2022-09-01T07:25:20.979Z,69
2022-09-01T07:26:50.394Z,69
2022-09-01T07:28:51.030Z,68
2022-09-01T07:30:50.349Z,68
2022-09-01T07:32:50.359Z,68
2022-09-01T07:34:54.670Z,68
2022-09-01T07:39:50.396Z,68
2022-09-01T07:43:06.019Z,67
2022-09-01T07:44:50.217Z,68
2022-09-01T07:47:52.923Z,68
2022-09-01T07:49:32.626Z,67
2022-09-01T07:51:37.417Z,67
2022-09-01T07:52:50.805Z,67
2022-09-01T07:54:50.705Z,67
2022-09-01T07:56:50.139Z,66
2022-09-01T07:58:50.049Z,66
2022-09-01T08:00:50.190Z,66
2022-09-01T08:02:57.885Z,66
2022-09-01T08:04:50.197Z,66
2022-09-01T08:06:50.357Z,65
2022-09-01T08:08:50.087Z,64
2022-09-01T08:10:51.124Z,64
2022-09-01T08:12:58.459Z,64
2022-09-01T08:16:06.268Z,64
2022-09-01T08:16:55.474Z,64
2022-09-01T08:18:51.569Z,64
2022-09-01T08:20:50.463Z,64
2022-09-01T08:22:50.486Z,63
2022-09-01T08:24:50.200Z,62
2022-09-01T08:26:50.294Z,62
2022-09-01T08:28:56.065Z,62
2022-09-01T08:30:53.528Z,62
2022-09-01T08:32:50.586Z,62
2022-09-01T08:34:50.201Z,62
2022-09-01T08:36:50.334Z,62
2022-09-01T08:38:51.920Z,62
2022-09-01T08:40:56.932Z,62
2022-09-01T08:42:50.923Z,60
2022-09-01T08:44:50.940Z,61
2022-09-01T08:46:50.756Z,60
2022-09-01T08:49:28.667Z,60
2022-09-01T08:50:53.593Z,60
2022-09-01T08:52:53.642Z,59
2022-09-01T08:54:50.743Z,59
2022-09-01T08:56:50.120Z,59
2022-09-01T08:58:51.229Z,59
2022-09-01T09:00:58.141Z,59
2022-09-01T09:02:51.181Z,59
2022-09-01T09:04:50.222Z,59
2022-09-01T09:06:50.277Z,59
2022-09-01T09:08:50.785Z,59
2022-09-01T09:10:52.092Z,59
2022-09-01T09:12:50.079Z,59
2022-09-01T09:14:50.740Z,58
2022-09-01T09:16:54.405Z,58
2022-09-01T09:18:57.281Z,58
2022-09-01T09:20:52.237Z,57
2022-09-01T09:22:50.690Z,56
2022-09-01T09:24:50.806Z,57
2022-09-01T09:26:50.293Z,56
2022-09-01T09:28:50.270Z,56
2022-09-01T09:30:50.514Z,55
2022-09-01T09:33:48.458Z,55
2022-09-01T09:34:50.498Z,55
2022-09-01T09:36:57.764Z,55
2022-09-01T09:38:50.792Z,55
2022-09-01T09:41:26.497Z,54
2022-09-01T09:42:50.951Z,54
2022-09-01T09:44:50.892Z,53
2022-09-01T09:46:50.836Z,53
2022-09-01T09:48:51.540Z,52
2022-09-01T09:50:51.378Z,53
2022-09-01T09:52:50.278Z,52
2022-09-01T09:54:50.339Z,52
2022-09-01T09:56:50.568Z,52
2022-09-01T09:58:51.803Z,53
2022-09-01T10:00:51.107Z,53
2022-09-01T10:02:51.105Z,52
2022-09-01T10:04:56.539Z,52
2022-09-01T10:06:51.544Z,53
2022-09-01T10:08:51.011Z,53
2022-09-01T10:10:59.362Z,52
2022-09-01T10:12:50.216Z,51
2022-09-01T10:14:54.126Z,51
2022-09-01T10:16:53.172Z,52
2022-09-01T10:18:52.282Z,52
2022-09-01T10:20:50.830Z,52
2022-09-01T10:22:51.397Z,52
2022-09-01T10:24:51.260Z,52
2022-09-01T10:26:50.447Z,51
2022-09-01T10:28:51.401Z,50
2022-09-01T10:30:50.625Z,50
2022-09-01T10:33:19.033Z,50
2022-09-01T10:34:50.537Z,50
2022-09-01T10:36:59.445Z,50
2022-09-01T10:39:09.391Z,51
2022-09-01T10:40:51.407Z,50
2022-09-01T10:42:52.443Z,50
2022-09-01T10:44:50.680Z,50
2022-09-01T10:47:02.454Z,50
2022-09-01T10:49:07.016Z,50
2022-09-01T10:50:50.466Z,49
2022-09-01T10:52:54.201Z,49
2022-09-01T10:54:56.183Z,49
2022-09-01T10:56:52.532Z,47
2022-09-01T10:59:32.623Z,47
2022-09-01T11:01:47.675Z,47
2022-09-01T11:02:50.658Z,47
2022-09-01T11:04:51.013Z,48
2022-09-01T11:07:13.627Z,48
2022-09-01T11:08:51.691Z,48
2022-09-01T11:10:51.104Z,47
2022-09-01T11:12:50.336Z,47
2022-09-01T11:14:50.883Z,46
2022-09-01T11:16:51.363Z,47
2022-09-01T11:18:50.579Z,46
2022-09-01T11:20:50.508Z,46
2022-09-01T11:22:50.210Z,46
2022-09-01T11:25:13.168Z,46
2022-09-01T11:26:50.225Z,46
2022-09-01T11:28:50.737Z,46
2022-09-01T11:30:50.393Z,46
2022-09-01T11:32:50.361Z,46
2022-09-01T11:34:50.938Z,46
2022-09-01T11:36:52.308Z,47
2022-09-01T11:38:50.205Z,47
2022-09-01T11:40:51.243Z,47
2022-09-01T11:42:50.284Z,47
2022-09-01T11:44:50.487Z,47
2022-09-01T11:46:50.719Z,47
2022-09-01T11:48:52.662Z,47
2022-09-01T11:50:50.733Z,47
2022-09-01T11:52:50.598Z,47
2022-09-01T11:54:50.852Z,46
2022-09-01T11:56:50.154Z,47
2022-09-01T11:58:50.128Z,47
2022-09-01T12:00:50.189Z,47
2022-09-01T12:02:51.940Z,47
2022-09-01T12:04:50.199Z,47
2022-09-01T12:06:50.440Z,47
2022-09-01T12:08:50.333Z,47
2022-09-01T12:10:50.326Z,47
2022-09-01T12:12:50.531Z,47
2022-09-01T12:15:07.285Z,47
2022-09-01T12:16:51.267Z,47
2022-09-01T12:18:50.338Z,47
2022-09-01T12:22:50.451Z,47
2022-09-01T12:24:50.241Z,47
2022-09-01T12:26:50.602Z,47
2022-09-01T12:28:50.671Z,47
2022-09-01T12:30:50.700Z,47
2022-09-01T12:32:51.944Z,48
2022-09-01T12:34:50.425Z,47
2022-09-01T12:36:50.703Z,47
2022-09-01T12:38:50.814Z,47
2022-09-01T12:40:51.327Z,46
2022-09-01T12:42:50.484Z,46
2022-09-01T12:44:51.181Z,46
2022-09-01T12:46:50.338Z,46
2022-09-01T12:48:50.959Z,47
2022-09-01T12:50:50.792Z,47
2022-09-01T12:52:53.180Z,46
2022-09-01T12:54:50.115Z,47
2022-09-01T12:56:50.290Z,47
2022-09-01T12:58:51.998Z,48
2022-09-01T13:00:51.344Z,48
2022-09-01T13:02:51.552Z,47
2022-09-01T13:04:50.890Z,47
2022-09-01T13:06:50.393Z,48
2022-09-01T13:08:50.057Z,48
2022-09-01T13:10:50.166Z,47
2022-09-01T13:12:50.086Z,47
2022-09-01T13:14:50.097Z,47
2022-09-01T13:16:50.520Z,47
2022-09-01T13:19:12.053Z,47
2022-09-01T13:20:50.227Z,46
2022-09-01T13:22:51.050Z,46
2022-09-01T13:24:50.300Z,46
2022-09-01T13:27:21.900Z,46
2022-09-01T13:28:50.158Z,46
2022-09-01T13:31:29.237Z,45
2022-09-01T13:33:23.619Z,45
2022-09-01T13:34:53.017Z,45
2022-09-01T13:36:53.346Z,45
2022-09-01T13:38:57.259Z,45
2022-09-01T13:40:50.778Z,46
2022-09-01T13:42:50.160Z,46
2022-09-01T13:44:57.402Z,46
2022-09-01T13:47:29.709Z,46
2022-09-01T13:51:19.228Z,46
2022-09-01T13:52:55.914Z,45
2022-09-01T13:54:50.745Z,45
2022-09-01T13:56:50.053Z,46
2022-09-01T13:58:50.874Z,44
2022-09-01T14:00:51.111Z,44
2022-09-01T14:02:50.195Z,44
2022-09-01T14:04:50.720Z,42
2022-09-01T14:06:50.044Z,43
2022-09-01T14:08:50.966Z,41
2022-09-01T14:10:51.468Z,42
2022-09-01T14:12:50.480Z,42
2022-09-01T14:15:17.941Z,41
2022-09-01T14:16:50.763Z,41
2022-09-01T14:18:50.780Z,40
2022-09-01T14:20:50.942Z,40
2022-09-01T14:22:50.315Z,40
2022-09-01T14:24:50.205Z,40
2022-09-01T14:26:50.521Z,40
2022-09-01T14:28:50.374Z,41
2022-09-01T14:32:50.071Z,41
2022-09-01T14:34:50.810Z,41
2022-09-01T14:36:50.959Z,41
2022-09-01T14:38:50.748Z,41
2022-09-01T14:40:51.224Z,41
2022-09-01T14:42:50.353Z,42
2022-09-01T14:44:50.467Z,42
2022-09-01T14:46:52.309Z,42
2022-09-01T14:48:50.227Z,42
2022-09-01T14:50:50.349Z,42
2022-09-01T14:52:50.471Z,42
2022-09-01T14:54:50.321Z,43
2022-09-01T14:57:37.342Z,43
2022-09-01T14:58:50.864Z,43
2022-09-01T15:00:50.949Z,43
2022-09-01T15:02:50.058Z,43
2022-09-01T15:04:50.840Z,44
2022-09-01T15:06:50.996Z,44
2022-09-01T15:08:50.842Z,44
2022-09-01T15:10:50.874Z,45
2022-09-01T15:12:50.733Z,45
2022-09-01T15:14:50.668Z,45
2022-09-01T15:16:50.875Z,45
2022-09-01T15:18:50.166Z,45
2022-09-01T15:20:50.334Z,45
2022-09-01T15:22:50.907Z,45
2022-09-01T15:24:50.869Z,45
2022-09-01T15:26:50.403Z,46
2022-09-01T15:28:50.287Z,46
2022-09-01T15:30:50.162Z,46
2022-09-01T15:32:50.271Z,46
2022-09-01T15:34:50.723Z,46
2022-09-01T15:36:50.947Z,46
2022-09-01T15:38:50.677Z,46
2022-09-01T15:40:59.421Z,46
2022-09-01T15:42:50.275Z,45
2022-09-01T15:44:50.830Z,45
2022-09-01T15:46:51.360Z,45
2022-09-01T15:48:50.273Z,46
2022-09-01T15:50:50.358Z,46
2022-09-01T15:52:50.138Z,46
2022-09-01T15:54:50.202Z,46
2022-09-01T15:56:50.372Z,46
2022-09-01T15:59:02.807Z,46
2022-09-01T16:00:50.753Z,46
2022-09-01T16:02:50.109Z,46
2022-09-01T16:04:50.536Z,46
2022-09-01T16:06:50.886Z,46
2022-09-01T16:08:50.905Z,46
2022-09-01T16:10:52.645Z,46
2022-09-01T16:12:50.327Z,46
2022-09-01T16:14:50.137Z,46
2022-09-01T16:16:50.359Z,46
2022-09-01T16:18:50.782Z,47
2022-09-01T16:20:50.736Z,47
2022-09-01T16:22:50.113Z,47
2022-09-01T16:24:50.140Z,47
2022-09-01T16:26:50.523Z,47
2022-09-01T16:28:50.770Z,47
2022-09-01T16:30:50.655Z,47
2022-09-01T16:32:50.512Z,47
2022-09-01T16:34:50.817Z,47
2022-09-01T16:36:50.914Z,47
2022-09-01T16:38:51.009Z,47
2022-09-01T16:40:50.624Z,47
2022-09-01T16:42:58.674Z,47
2022-09-01T16:44:50.616Z,47
2022-09-01T16:46:51.231Z,47
2022-09-01T16:48:51.994Z,48
2022-09-01T16:50:57.237Z,48
2022-09-01T16:52:50.047Z,48
2022-09-01T16:54:51.889Z,48
2022-09-01T16:56:50.206Z,48
2022-09-01T16:58:50.865Z,48
2022-09-01T17:00:57.693Z,48
2022-09-01T17:02:51.286Z,48
2022-09-01T17:04:51.704Z,48
2022-09-01T17:06:50.685Z,48
2022-09-01T17:08:50.253Z,48
2022-09-01T17:10:51.058Z,49
2022-09-01T17:12:51.011Z,49
2022-09-01T17:14:50.606Z,49
2022-09-01T17:16:50.263Z,49
2022-09-01T17:18:50.471Z,49
2022-09-01T17:20:59.297Z,49
2022-09-01T17:22:50.303Z,49
2022-09-01T17:24:50.328Z,49
2022-09-01T17:26:50.728Z,50
2022-09-01T17:28:50.640Z,50
2022-09-01T17:30:50.988Z,50
2022-09-01T17:32:50.947Z,50
2022-09-01T17:34:50.269Z,50
2022-09-01T17:36:50.599Z,50
2022-09-01T17:38:50.189Z,50
2022-09-01T17:40:51.232Z,50
2022-09-01T17:42:50.884Z,51
2022-09-01T17:44:50.100Z,52
2022-09-01T17:46:50.912Z,52
2022-09-01T17:48:50.783Z,52
2022-09-01T17:50:50.752Z,52
2022-09-01T17:52:53.627Z,52
2022-09-01T17:54:50.575Z,52
2022-09-01T17:56:50.072Z,52
2022-09-01T17:58:50.425Z,52
2022-09-01T18:00:50.288Z,52
2022-09-01T18:02:50.063Z,52
2022-09-01T18:04:50.526Z,53
2022-09-01T18:06:50.750Z,53
2022-09-01T18:08:52.741Z,53
2022-09-01T18:10:50.669Z,53
2022-09-01T18:12:50.522Z,53
2022-09-01T18:14:50.404Z,54
2022-09-01T18:16:50.343Z,54
2022-09-01T18:18:51.010Z,55
2022-09-01T18:20:50.947Z,55
2022-09-01T18:22:51.130Z,55
2022-09-01T18:24:50.980Z,56
2022-09-01T18:26:50.766Z,56
2022-09-01T18:28:51.081Z,56
2022-09-01T18:30:53.916Z,56
2022-09-01T18:32:50.949Z,56
2022-09-01T18:34:50.497Z,56
2022-09-01T18:36:50.867Z,56
2022-09-01T18:38:50.939Z,56
2022-09-01T18:40:50.682Z,56
2022-09-01T18:42:50.823Z,56
2022-09-01T18:44:50.838Z,56
2022-09-01T18:46:50.575Z,56
2022-09-01T18:48:50.027Z,56
2022-09-01T18:50:50.589Z,56
2022-09-01T18:52:50.246Z,56
2022-09-01T18:54:50.099Z,56
2022-09-01T18:56:50.848Z,57
2022-09-01T18:58:51.009Z,57
2022-09-01T19:00:54.422Z,57
2022-09-01T19:02:51.067Z,57
2022-09-01T19:04:50.517Z,57
2022-09-01T19:06:50.609Z,57
2022-09-01T19:08:50.639Z,57
2022-09-01T19:10:50.503Z,57
2022-09-01T19:12:50.359Z,57
2022-09-01T19:14:50.672Z,57
2022-09-01T19:16:50.360Z,57
2022-09-01T19:18:50.137Z,58
2022-09-01T19:20:50.517Z,58
2022-09-01T19:22:50.429Z,58
2022-09-01T19:24:50.195Z,58
2022-09-01T19:26:50.502Z,58
2022-09-01T19:28:50.303Z,57
2022-09-01T19:30:50.300Z,58
2022-09-01T19:32:50.184Z,58
2022-09-01T19:34:50.586Z,59
2022-09-01T19:36:50.909Z,58
2022-09-01T19:38:50.525Z,58
2022-09-01T19:40:50.359Z,58
2022-09-01T19:42:50.337Z,58
2022-09-01T19:44:50.305Z,58
2022-09-01T19:46:50.297Z,59
2022-09-01T19:48:50.158Z,59
2022-09-01T19:50:51.765Z,59
2022-09-01T19:52:50.769Z,59
2022-09-01T19:54:50.710Z,59
2022-09-01T19:56:50.391Z,59
2022-09-01T19:58:50.193Z,60
2022-09-01T20:00:52.016Z,60
2022-09-01T20:02:51.191Z,59
2022-09-01T20:04:57.792Z,60
2022-09-01T20:06:50.900Z,59
2022-09-01T20:08:50.886Z,59
2022-09-01T20:10:57.274Z,59
2022-09-01T20:12:50.403Z,59
2022-09-01T20:14:50.828Z,60
2022-09-01T20:16:50.893Z,59
2022-09-01T20:18:53.977Z,60
2022-09-01T20:20:50.754Z,60
2022-09-01T20:22:50.782Z,60
2022-09-01T20:24:58.935Z,60
2022-09-01T20:26:50.658Z,60
2022-09-01T20:28:51.347Z,61
2022-09-01T20:30:51.224Z,61
2022-09-01T20:32:50.173Z,62
2022-09-01T20:34:50.614Z,61
2022-09-01T20:36:51.005Z,61
2022-09-01T20:38:51.012Z,61
2022-09-01T20:40:51.086Z,61
2022-09-01T20:42:50.957Z,61
2022-09-01T20:44:50.357Z,61
2022-09-01T20:46:50.937Z,61
2022-09-01T20:48:50.823Z,61
2022-09-01T20:50:50.764Z,61
2022-09-01T20:52:50.821Z,60
2022-09-01T20:54:50.356Z,60
2022-09-01T20:56:50.596Z,60
2022-09-01T21:00:50.714Z,61
2022-09-01T21:02:51.311Z,61
2022-09-01T21:04:50.949Z,61
2022-09-01T21:06:50.917Z,61
2022-09-01T21:08:50.100Z,60
2022-09-01T21:10:50.714Z,61
2022-09-01T21:12:50.850Z,61
2022-09-01T21:14:53.033Z,61
2022-09-01T21:16:50.475Z,61
2022-09-01T21:18:50.726Z,61
2022-09-01T21:20:50.043Z,61
2022-09-01T21:22:50.993Z,61
2022-09-01T21:24:50.664Z,61
2022-09-01T21:26:50.780Z,61
2022-09-01T21:28:52.336Z,62
2022-09-01T21:30:50.600Z,62
2022-09-01T21:32:50.572Z,62
2022-09-01T21:34:50.818Z,62
2022-09-01T21:36:55.935Z,62
2022-09-01T21:38:51.046Z,62
2022-09-01T21:40:51.194Z,61
2022-09-01T21:42:50.392Z,62
2022-09-01T21:44:54.612Z,62
2022-09-01T21:46:50.957Z,62
2022-09-01T21:48:50.807Z,62
2022-09-01T21:50:50.993Z,62
2022-09-01T21:52:50.778Z,62
2022-09-01T21:54:50.770Z,62
2022-09-01T21:56:50.923Z,62
2022-09-01T21:58:50.884Z,63
2022-09-01T22:00:51.015Z,62
2022-09-01T22:02:51.389Z,62
2022-09-01T22:04:50.969Z,62
2022-09-01T22:06:50.292Z,62
2022-09-01T22:08:53.361Z,62
2022-09-01T22:10:50.259Z,62
2022-09-01T22:12:50.122Z,62
2022-09-01T22:14:51.014Z,62
2022-09-01T22:16:50.723Z,62
2022-09-01T22:18:51.973Z,62
2022-09-01T22:20:50.965Z,62
2022-09-01T22:22:50.839Z,62
2022-09-01T22:24:50.610Z,62
2022-09-01T22:26:50.767Z,62
2022-09-01T22:28:50.753Z,62
2022-09-01T22:30:50.936Z,62
2022-09-01T22:32:50.833Z,62
2022-09-01T22:34:50.380Z,62
2022-09-01T22:36:50.541Z,62
2022-09-01T22:38:50.793Z,62
2022-09-01T22:40:50.977Z,62
2022-09-01T22:42:51.314Z,62
2022-09-01T22:44:51.005Z,62
2022-09-01T22:46:50.129Z,62
2022-09-01T22:48:50.837Z,62
2022-09-01T22:50:50.739Z,62
2022-09-01T22:52:50.868Z,62
2022-09-01T22:54:50.735Z,62
2022-09-01T22:56:50.508Z,62
2022-09-01T22:58:50.387Z,62
2022-09-01T23:00:50.680Z,62
2022-09-01T23:02:50.834Z,62
2022-09-01T23:04:50.466Z,62
2022-09-01T23:06:50.645Z,62
2022-09-01T23:08:50.598Z,62
2022-09-01T23:10:50.418Z,62
2022-09-01T23:12:50.575Z,62
2022-09-01T23:14:50.355Z,62
2022-09-01T23:16:52.611Z,62
2022-09-01T23:18:50.593Z,62
2022-09-01T23:20:50.500Z,62
2022-09-01T23:22:50.484Z,62
2022-09-01T23:24:52.246Z,62
2022-09-01T23:26:50.316Z,62
2022-09-01T23:28:50.187Z,62
2022-09-01T23:30:50.140Z,62
2022-09-01T23:32:50.999Z,63
2022-09-01T23:34:50.346Z,63
2022-09-01T23:36:50.193Z,63
2022-09-01T23:38:51.028Z,63
2022-09-01T23:40:51.281Z,63
2022-09-01T23:42:50.280Z,63
2022-09-01T23:44:50.155Z,63
2022-09-01T23:46:50.405Z,63
2022-09-01T23:48:50.386Z,63
2022-09-01T23:50:50.495Z,63
2022-09-01T23:52:50.186Z,63
2022-09-01T23:54:50.200Z,63
2022-09-01T23:56:50.340Z,63
2022-09-01T23:58:50.268Z,63
